Terminal Aerodrome Forecast
Issued by NWS

Home | Current Version | Previous Version | Text Only | Print | Product List | Glossary On
Versions: 1 2 3 4 5 6 7 8 9 10 11 12 13 14
000
FTUS45 KVEF 311726
TAFBIH
TAF
KBIH 311726Z 3118/0118 16012KT P6SM SKC
     FM312100 16018G28KT P6SM SCT120
     FM010400 17008KT P6SM FEW120=

USA.gov is the U.S. government's official web portal to all federal, state and local government web resources and services.